Time;durP1;ratioP1;P1;durP2;ratioP2;P2;SDS_P1;SDS_P2;PMS_P1;PMS_P2;Temp;Humidity;BMP_temperature;BMP_pressure;BME280_temperature;BME280_humidity;BME280_pressure;Samples;Min_cycle;Max_cycle;Signal;HPM_P1;HPM_P2
2022/08/12 06:52:56;;;;;;;5.03;2.63;;;;;;;21.11;43.93;96746.66;2084413;28;21058;-67
2022/08/12 06:53:59;;;;;;;12.13;2.47;;;;;;;20.98;43.86;96746.84;2079182;28;20205;-67
2022/08/12 06:55:00;;;;;;;5.72;2.20;;;;;;;21.21;43.38;96744.88;2078142;28;20197;-68
2022/08/12 06:56:02;;;;;;;4.78;2.30;;;;;;;21.37;43.10;96752.38;2082799;28;20201;-68
2022/08/12 06:57:03;;;;;;;4.82;2.05;;;;;;;21.29;42.95;96741.59;2086248;28;20205;-68
2022/08/12 06:58:27;;;;;;;10.45;2.53;;;;;;;21.39;42.84;96741.59;2077520;28;20208;-68
2022/08/12 07:19:04;;;;;;;20.15;3.67;;;;;;;22.31;40.97;96758.38;2084155;28;20584;-67
2022/08/12 07:20:08;;;;;;;27.77;2.95;;;;;;;22.74;40.44;96757.13;2084578;28;20220;-68
2022/08/12 07:21:32;;;;;;;15.20;2.88;;;;;;;22.75;40.25;96761.44;2079253;28;20221;-68
2022/08/12 07:22:58;;;;;;;9.00;2.58;;;;;;;21.86;41.06;96754.38;2068476;28;20205;-68
2022/08/12 07:23:59;;;;;;;21.15;2.70;;;;;;;21.83;41.61;96757.31;2076054;28;20194;-68
2022/08/12 07:44:07;;;;;;;28.75;3.40;;;;;;;22.88;39.66;96766.47;2086079;28;20572;-67
2022/08/12 07:45:12;;;;;;;34.65;2.90;;;;;;;22.40;40.09;96764.66;2079805;28;20208;-68
2022/08/12 07:46:19;;;;;;;21.45;3.47;;;;;;;22.25;40.57;96761.56;2075129;28;20234;-68
2022/08/12 07:47:21;;;;;;;26.42;3.30;;;;;;;21.82;41.27;96768.91;2070653;28;20197;-68
2022/08/12 07:48:23;;;;;;;12.98;2.40;;;;;;;22.07;41.23;96761.38;2071544;28;20252;-68
2022/08/12 07:49:26;;;;;;;13.80;2.55;;;;;;;22.30;40.28;96764.66;2070848;28;20209;-68
2022/08/12 07:50:28;;;;;;;13.40;3.17;;;;;;;22.62;40.08;96771.53;2070531;28;20198;-68
2022/08/12 07:51:30;;;;;;;27.02;2.55;;;;;;;22.77;40.52;96775.44;2070396;28;20245;-68
2022/08/12 08:09:20;;;;;;;4.55;2.30;;;;;;;22.24;40.10;96742.09;2085227;28;20561;-68
2022/08/12 08:10:21;;;;;;;10.63;2.67;;;;;;;22.21;40.33;96752.16;2083459;28;20724;-68
2022/08/12 08:12:52;;;;;;;12.02;2.42;;;;;;;22.97;39.07;96762.97;2072717;28;20205;-68
2022/08/12 08:13:54;;;;;;;15.30;2.92;;;;;;;22.99;38.58;96757.47;2074876;28;20202;-68
2022/08/12 08:14:57;;;;;;;10.77;3.30;;;;;;;23.01;39.05;96758.19;2074577;28;20248;-68
2022/08/12 08:15:59;;;;;;;10.38;2.15;;;;;;;22.59;39.61;96754.03;2075333;28;20213;-67
2022/08/12 08:17:05;;;;;;;24.25;2.90;;;;;;;22.63;39.63;96755.44;2076825;28;20204;-69
2022/08/12 08:18:10;;;;;;;7.63;2.50;;;;;;;22.73;39.63;96762.56;2068957;28;20198;-68
2022/08/12 08:35:32;;;;;;;7.03;2.10;;;;;;;23.67;37.08;96771.56;2102980;27;20557;-66
2022/08/12 08:36:47;;;;;;;6.88;2.28;;;;;;;23.36;38.00;96774.50;2096876;28;20226;-66
2022/08/12 08:37:50;;;;;;;15.77;2.45;;;;;;;23.24;38.08;96772.03;2097353;28;20701;-66
2022/08/12 08:38:52;;;;;;;28.90;2.72;;;;;;;23.78;37.19;96764.25;2103776;28;20251;-66
2022/08/12 08:42:35;;;;;;;9.88;2.25;;;;;;;24.59;36.29;96765.25;2109187;28;20190;-66
2022/08/12 08:43:00;;;;;;;7.53;1.65;;;;;;;25.75;34.02;96760.69;2091282;28;20208;-66
2022/08/12 08:44:02;;;;;;;7.78;2.00;;;;;;;25.85;34.06;96758.72;2100348;28;20196;-66
2022/08/12 08:45:11;;;;;;;3.70;1.80;;;;;;;26.05;33.65;96769.16;2103087;28;20222;-66
2022/08/12 08:46:13;;;;;;;4.40;2.30;;;;;;;25.27;34.62;96765.59;2094486;28;20211;-66
2022/08/12 08:47:15;;;;;;;9.23;2.78;;;;;;;25.52;34.65;96763.94;2098041;28;20540;-67
2022/08/12 09:06:22;;;;;;;15.55;2.97;;;;;;;24.86;31.94;96768.84;2080845;28;20557;-66
2022/08/12 09:07:45;;;;;;;4.68;1.50;;;;;;;24.59;33.60;96754.59;2075182;28;20204;-67
2022/08/12 09:09:10;;;;;;;12.85;2.13;;;;;;;24.41;33.84;96754.56;2080923;28;20201;-66
2022/08/12 09:10:20;;;;;;;8.20;1.80;;;;;;;24.41;33.52;96751.06;2076078;28;20306;-67
2022/08/12 09:13:27;;;;;;;7.03;1.75;;;;;;;25.97;31.97;96747.72;2076010;28;20204;-67
2022/08/12 09:14:49;;;;;;;9.23;2.00;;;;;;;26.62;31.08;96747.00;2073352;28;20198;-67
2022/08/12 09:16:10;;;;;;;27.50;2.90;;;;;;;26.45;31.20;96756.88;2071309;28;20223;-67
2022/08/12 09:17:13;;;;;;;9.57;1.70;;;;;;;26.22;31.18;96756.66;2065750;28;20518;-67
2022/08/12 09:18:23;;;;;;;6.82;1.95;;;;;;;25.87;31.62;96751.34;2065540;28;20347;-67
2022/08/12 09:19:31;;;;;;;15.55;2.65;;;;;;;26.11;31.17;96749.78;2064908;28;20229;-67
2022/08/12 09:20:34;;;;;;;11.40;1.80;;;;;;;24.96;32.76;96757.22;2066499;28;20206;-66
2022/08/12 09:39:33;;;;;;;6.75;1.40;;;;;;;27.27;29.00;96731.06;2106845;27;20547;-66
2022/08/12 09:40:56;;;;;;;41.83;3.50;;;;;;;26.55;30.22;96730.78;2107114;27;20225;-65
2022/08/12 09:45:34;;;;;;;18.67;2.05;;;;;;;27.51;29.03;96732.84;2090408;28;20228;-67
2022/08/12 09:46:56;;;;;;;12.55;2.22;;;;;;;26.95;29.51;96722.91;2090293;28;20260;-67
2022/08/12 09:48:02;;;;;;;17.20;2.50;;;;;;;27.82;29.26;96716.78;2091344;28;20551;-67
2022/08/12 09:49:08;;;;;;;7.10;1.45;;;;;;;27.83;29.09;96726.53;2087683;28;20647;-67
2022/08/12 09:50:18;;;;;;;7.80;1.95;;;;;;;28.35;28.17;96726.88;2092277;28;20542;-67
2022/08/12 09:51:21;;;;;;;5.35;1.73;;;;;;;27.79;28.91;96722.50;2093136;28;20243;-67
2022/08/12 09:52:23;;;;;;;6.38;1.60;;;;;;;27.15;29.57;96722.56;2094549;28;20207;-67
2022/08/12 09:53:32;;;;;;;6.95;1.60;;;;;;;27.91;29.46;96722.94;2092237;28;20197;-67
2022/08/12 09:54:40;;;;;;;10.27;1.83;;;;;;;28.53;28.37;96721.22;2094453;28;20223;-67
2022/08/12 09:55:48;;;;;;;3.78;1.70;;;;;;;28.06;28.55;96720.41;2089406;28;20291;-67
2022/08/12 09:57:10;;;;;;;4.32;1.52;;;;;;;26.79;29.97;96718.44;2088964;28;20239;-67
2022/08/12 09:58:33;;;;;;;3.42;1.65;;;;;;;26.60;30.56;96708.00;2090006;28;20503;-67
2022/08/12 09:59:55;;;;;;;6.57;1.80;;;;;;;25.66;31.59;96714.38;2098122;28;20253;-67
2022/08/12 10:20:02;;;;;;;3.20;1.35;;;;;;;29.80;26.91;96701.63;2105593;27;20564;-67
2022/08/12 10:21:12;;;;;;;3.80;2.03;;;;;;;29.69;27.19;96690.50;2094419;28;20195;-66
2022/08/12 10:22:14;;;;;;;9.52;2.28;;;;;;;30.04;27.30;96704.19;2084566;28;20254;-67
2022/08/12 10:23:37;;;;;;;11.02;1.88;;;;;;;30.32;27.33;96701.56;2084305;28;20209;-67
2022/08/12 10:24:41;;;;;;;10.43;1.98;;;;;;;28.96;27.51;96693.84;2083189;28;20478;-67
2022/08/12 10:30:51;;;;;;;18.45;2.70;;;;;;;28.47;27.79;96695.94;2081298;28;20202;-67
2022/08/12 10:31:59;;;;;;;30.10;2.42;;;;;;;29.17;26.67;96693.94;2081223;28;20229;-67
2022/08/12 10:33:21;;;;;;;15.95;2.22;;;;;;;29.72;26.24;96685.56;2082014;28;20200;-67
2022/08/12 10:34:32;;;;;;;3.28;1.30;;;;;;;30.15;25.94;96684.84;2084123;28;20196;-67
2022/08/12 10:35:35;;;;;;;2.20;1.30;;;;;;;30.46;25.63;96684.53;2081340;28;20226;-67
2022/08/12 10:36:40;;;;;;;3.33;1.58;;;;;;;30.10;25.72;96684.59;2083907;28;20225;-67
2022/08/12 10:37:45;;;;;;;10.77;2.17;;;;;;;28.36;27.52;96688.28;2081880;28;20205;-67
2022/08/12 10:39:12;;;;;;;2.50;1.70;;;;;;;28.14;28.12;96684.63;2082969;28;20204;-67
2022/08/12 10:43:39;;;;;;;7.95;2.00;;;;;;;28.17;28.18;96677.00;2083307;28;20587;-67
2022/08/12 10:45:00;;;;;;;3.05;1.38;;;;;;;25.98;31.08;96683.38;2081706;28;20208;-67
2022/08/12 10:46:02;;;;;;;3.17;1.63;;;;;;;26.73;30.40;96677.06;2082020;28;20199;-67
2022/08/12 10:47:20;;;;;;;3.97;2.03;;;;;;;27.15;29.03;96674.31;2084434;28;20212;-68
2022/08/12 10:48:47;;;;;;;6.20;1.90;;;;;;;26.91;29.50;96677.91;2084739;28;20212;-67
2022/08/12 10:50:08;;;;;;;3.33;1.95;;;;;;;28.11;28.50;96672.38;2081540;28;20223;-67
2022/08/12 10:51:30;;;;;;;3.67;1.67;;;;;;;28.11;28.25;96666.16;2081657;28;20243;-67
2022/08/12 10:52:51;;;;;;;8.27;1.70;;;;;;;28.81;27.95;96667.78;2083094;28;20211;-67
2022/08/12 10:53:55;;;;;;;9.05;1.80;;;;;;;28.11;28.58;96680.44;2082354;28;20193;-68
2022/08/12 10:55:02;;;;;;;8.43;1.40;;;;;;;26.97;28.68;96672.69;2082918;28;20200;-67
2022/08/12 10:56:15;;;;;;;3.17;1.55;;;;;;;27.05;28.80;96674.50;2086068;28;20192;-67
2022/08/12 10:57:17;;;;;;;2.78;1.40;;;;;;;27.64;28.46;96667.94;2084051;28;20200;-66
2022/08/12 10:58:39;;;;;;;7.95;2.00;;;;;;;28.92;27.53;96660.28;2080407;28;20244;-67
2022/08/12 10:59:46;;;;;;;16.00;1.70;;;;;;;30.03;26.42;96657.59;2088191;28;20532;-67
2022/08/12 11:01:09;;;;;;;36.55;2.58;;;;;;;28.67;26.78;96665.91;2085500;28;20204;-66
2022/08/12 11:02:30;;;;;;;37.28;3.08;;;;;;;29.20;26.06;96673.91;2079212;28;20901;-67
2022/08/12 11:03:52;;;;;;;6.03;1.95;;;;;;;27.37;28.25;96662.81;2083911;28;20204;-66
2022/08/12 11:05:14;;;;;;;3.55;1.33;;;;;;;27.64;28.33;96665.25;2082938;28;20643;-67
2022/08/12 11:27:58;;;;;;;68.88;3.75;;;;;;;31.17;24.75;96666.63;2090265;28;20904;-68
2022/08/12 11:29:00;;;;;;;23.13;2.25;;;;;;;30.65;24.53;96652.56;2077612;28;20201;-69
2022/08/12 11:30:22;;;;;;;3.22;1.35;;;;;;;29.39;25.86;96640.28;2086782;28;20247;-68
2022/08/12 11:31:32;;;;;;;2.30;1.30;;;;;;;28.51;27.03;96643.53;2072307;28;20217;-69
2022/08/12 11:32:53;;;;;;;2.75;1.42;;;;;;;28.26;27.13;96637.53;2073018;28;20667;-69
2022/08/12 11:33:57;;;;;;;5.47;1.55;;;;;;;28.63;26.49;96641.25;2072750;28;20335;-69
2022/08/12 11:35:08;;;;;;;2.97;1.50;;;;;;;28.11;27.99;96637.50;2072775;28;20244;-69
2022/08/12 11:36:12;;;;;;;2.55;1.30;;;;;;;29.45;26.35;96636.03;2072673;28;20871;-70
2022/08/12 11:37:16;;;;;;;9.65;2.05;;;;;;;28.72;26.67;96638.50;2073177;28;20201;-67
2022/08/12 11:38:27;;;;;;;8.88;2.40;;;;;;;29.22;26.48;96620.00;2073634;28;20268;-67
2022/08/12 11:39:28;;;;;;;5.18;1.90;;;;;;;29.78;26.44;96640.94;2074890;28;20275;-68
2022/08/12 11:40:50;;;;;;;14.88;1.83;;;;;;;30.36;25.45;96640.94;2074460;28;20202;-67
2022/08/12 11:41:51;;;;;;;3.67;1.52;;;;;;;30.52;25.30;96625.53;2070902;28;20723;-69
2022/08/12 11:42:53;;;;;;;7.68;1.98;;;;;;;30.43;25.35;96635.59;2072676;28;20193;-69
2022/08/12 11:43:57;;;;;;;4.80;1.80;;;;;;;29.93;25.27;96636.38;2072564;28;20233;-69
2022/08/12 11:44:59;;;;;;;11.90;2.15;;;;;;;28.98;26.20;96630.00;2072728;28;20706;-70
2022/08/12 11:46:01;;;;;;;22.80;2.20;;;;;;;29.59;25.61;96634.31;2072045;28;20194;-69
2022/08/12 11:47:02;;;;;;;25.10;2.67;;;;;;;29.91;25.65;96634.91;2070909;28;20220;-70
2022/08/12 11:48:10;;;;;;;26.25;1.90;;;;;;;30.98;25.09;96632.28;2072518;28;20193;-69
2022/08/12 11:49:16;;;;;;;8.93;1.27;;;;;;;31.06;24.58;96634.88;2071743;28;20208;-69
2022/08/12 11:50:33;;;;;;;13.70;2.30;;;;;;;29.80;24.92;96637.03;2071177;28;20695;-69
2022/08/12 11:51:42;;;;;;;19.35;2.22;;;;;;;30.18;24.72;96635.97;2071561;28;20582;-69
2022/08/12 11:52:58;;;;;;;9.55;1.52;;;;;;;31.17;23.46;96641.53;2071204;28;20277;-70
2022/08/12 11:54:00;;;;;;;3.45;1.10;;;;;;;32.28;22.45;96635.09;2071807;28;20194;-69
2022/08/12 11:55:02;;;;;;;5.00;1.40;;;;;;;32.78;21.71;96637.38;2071914;28;20672;-69
2022/08/12 11:56:05;;;;;;;3.47;1.50;;;;;;;30.35;23.54;96633.88;2071533;28;20790;-69
2022/08/12 11:57:07;;;;;;;6.80;1.50;;;;;;;29.14;25.09;96619.06;2069866;28;20565;-70
2022/08/12 11:58:28;;;;;;;3.00;1.73;;;;;;;30.49;23.93;96634.00;2071142;28;20424;-69
2022/08/12 11:59:49;;;;;;;2.77;1.20;;;;;;;30.50;23.99;96628.44;2071502;28;20797;-69
2022/08/12 12:01:11;;;;;;;5.88;2.03;;;;;;;28.84;26.29;96626.28;2070881;28;20435;-68
2022/08/12 12:02:32;;;;;;;3.95;1.55;;;;;;;28.85;25.98;96619.91;2070880;28;20202;-69
2022/08/12 12:03:34;;;;;;;2.03;1.45;;;;;;;28.90;26.14;96622.88;2071639;28;20638;-69
2022/08/12 12:04:50;;;;;;;7.43;1.42;;;;;;;27.74;27.48;96628.31;2070258;28;20292;-70
2022/08/12 12:05:54;;;;;;;5.93;1.65;;;;;;;28.88;26.45;96626.75;2070909;28;20205;-68
2022/08/12 12:07:01;;;;;;;2.88;1.52;;;;;;;30.52;24.86;96620.16;2071434;28;20198;-69
2022/08/12 12:08:25;;;;;;;8.65;1.65;;;;;;;31.57;23.60;96622.84;2071336;28;20245;-69
2022/08/12 12:09:42;;;;;;;6.90;1.70;;;;;;;31.88;23.30;96629.59;2069277;28;20198;-70
2022/08/12 12:10:54;;;;;;;17.38;2.50;;;;;;;30.00;25.67;96608.69;2070598;28;20218;-68
2022/08/12 12:11:56;;;;;;;12.10;1.80;;;;;;;31.71;24.13;96626.44;2071080;28;20197;-69
2022/08/12 12:12:57;;;;;;;17.75;1.80;;;;;;;32.85;23.44;96627.41;2070305;28;20197;-69
2022/08/12 12:13:59;;;;;;;11.00;1.70;;;;;;;32.94;22.29;96611.78;2068289;28;20210;-69
2022/08/12 12:15:12;;;;;;;3.57;1.63;;;;;;;31.31;23.95;96610.91;2070976;28;20506;-69
2022/08/12 12:16:14;;;;;;;6.15;1.75;;;;;;;31.35;23.82;96606.78;2069709;28;20459;-69
2022/08/12 12:17:15;;;;;;;5.60;1.60;;;;;;;32.56;23.24;96617.84;2071243;28;20198;-69
2022/08/12 12:18:22;;;;;;;9.23;1.20;;;;;;;33.32;22.23;96611.09;2071131;28;20989;-69
2022/08/12 12:19:31;;;;;;;2.60;1.40;;;;;;;34.05;21.76;96611.75;2070209;28;20771;-69
2022/08/12 12:20:46;;;;;;;2.37;1.10;;;;;;;34.38;21.25;96612.59;2070772;28;20867;-69
2022/08/12 12:21:48;;;;;;;5.90;1.30;;;;;;;34.35;20.60;96616.59;2070080;28;20489;-70
2022/08/12 12:22:50;;;;;;;27.33;2.90;;;;;;;32.01;22.47;96618.00;2070939;28;20458;-69
2022/08/12 12:23:53;;;;;;;17.40;1.70;;;;;;;31.13;22.94;96616.03;2071027;28;20435;-69
2022/08/12 12:25:01;;;;;;;8.63;2.03;;;;;;;31.70;22.77;96617.50;2069949;28;20431;-70
2022/08/12 12:26:14;;;;;;;27.50;3.40;;;;;;;29.16;24.90;96619.69;2070276;28;20463;-71
2022/08/12 12:27:50;;;;;;;16.17;2.47;;;;;;;29.14;24.57;96608.31;2070333;28;20474;-71
2022/08/12 12:29:05;;;;;;;12.27;2.50;;;;;;;29.11;24.70;96610.53;2070769;28;20518;-71
2022/08/12 12:30:27;;;;;;;27.70;2.47;;;;;;;29.84;23.90;96593.59;2070442;28;20716;-70
2022/08/12 12:31:32;;;;;;;32.40;2.33;;;;;;;29.31;24.30;96603.56;2069945;28;20221;-71
2022/08/12 12:32:53;;;;;;;12.38;1.50;;;;;;;31.56;23.07;96610.38;2070378;28;20620;-70
2022/08/12 12:33:54;;;;;;;3.22;1.20;;;;;;;32.51;21.95;96612.25;2070492;28;20193;-68
2022/08/12 12:34:59;;;;;;;3.20;1.30;;;;;;;32.26;21.45;96593.94;2071082;28;20209;-68
2022/08/12 12:36:21;;;;;;;9.15;1.67;;;;;;;30.50;22.98;96608.75;2069246;28;20487;-68
2022/08/12 12:37:30;;;;;;;17.47;2.17;;;;;;;30.10;23.65;96603.81;2070287;28;20724;-68
2022/08/12 12:38:52;;;;;;;5.03;1.70;;;;;;;29.31;24.35;96608.97;2068046;28;20963;-67
2022/08/12 12:39:56;;;;;;;11.73;1.70;;;;;;;28.75;24.51;96601.38;2065579;28;20537;-68
2022/08/12 12:40:59;;;;;;;16.90;2.22;;;;;;;29.84;23.66;96605.22;2065272;28;20661;-67
2022/08/12 12:42:17;;;;;;;4.80;1.35;;;;;;;28.81;24.02;96600.63;2065006;28;20210;-68
2022/08/12 12:43:38;;;;;;;4.60;1.10;;;;;;;29.43;23.89;96597.72;2064375;28;20658;-68
2022/08/12 12:44:44;;;;;;;4.45;1.30;;;;;;;30.64;22.31;96593.50;2065071;28;20202;-68
2022/08/12 12:45:54;;;;;;;2.88;1.35;;;;;;;31.13;22.08;96603.34;2063470;28;20283;-67
2022/08/12 12:46:55;;;;;;;1.83;1.20;;;;;;;30.88;22.25;96597.59;2065590;28;20198;-69
2022/08/12 12:48:16;;;;;;;2.65;1.48;;;;;;;30.60;22.37;96590.38;2065629;28;20218;-69
2022/08/12 12:49:18;;;;;;;6.53;1.77;;;;;;;31.33;21.99;96594.53;2065498;28;20202;-68
2022/08/12 12:50:29;;;;;;;10.93;1.65;;;;;;;31.09;22.71;96602.91;2065380;28;20244;-69
2022/08/12 12:51:45;;;;;;;14.33;2.00;;;;;;;30.69;22.65;96588.34;2064484;28;20222;-68
2022/08/12 12:53:08;;;;;;;22.80;2.60;;;;;;;29.48;23.70;96592.59;2065276;28;20467;-68
2022/08/12 12:54:29;;;;;;;24.83;2.30;;;;;;;29.64;24.02;96591.56;2064321;28;20210;-68
2022/08/12 12:55:36;;;;;;;15.33;2.03;;;;;;;30.58;23.39;96579.78;2065401;28;20424;-68
2022/08/12 12:56:40;;;;;;;3.28;1.42;;;;;;;31.59;21.70;96589.22;2064839;28;20459;-68
2022/08/12 12:57:44;;;;;;;2.90;1.20;;;;;;;32.16;21.64;96583.53;2063497;28;20198;-68
2022/08/12 12:59:02;;;;;;;4.40;1.20;;;;;;;32.03;21.84;96572.72;2064560;28;20198;-68
2022/08/12 13:00:13;;;;;;;2.43;1.23;;;;;;;31.74;21.49;96583.69;2057319;28;20206;-70
2022/08/12 13:01:17;;;;;;;4.03;1.30;;;;;;;30.52;22.62;96575.19;2057994;28;20456;-70
2022/08/12 13:02:33;;;;;;;3.70;1.30;;;;;;;29.32;23.87;96578.38;2065066;28;20486;-69
2022/08/12 13:03:35;;;;;;;22.03;1.87;;;;;;;30.72;23.34;96577.19;2065306;28;20431;-68
2022/08/12 13:04:49;;;;;;;11.10;1.63;;;;;;;30.90;22.80;96590.16;2064672;28;20431;-67
2022/08/12 13:05:59;;;;;;;13.50;1.80;;;;;;;30.45;23.19;96585.06;2064966;28;20907;-68
2022/08/12 13:07:01;;;;;;;8.50;1.40;;;;;;;31.70;22.14;96582.44;2064395;28;20923;-67
2022/08/12 13:08:35;;;;;;;7.73;1.23;;;;;;;31.13;22.53;96580.97;2063663;28;20494;-67
2022/08/12 13:09:37;;;;;;;1.70;1.20;;;;;;;31.32;22.52;96574.81;2059841;28;20437;-67
2022/08/12 13:10:41;;;;;;;2.00;1.20;;;;;;;31.84;22.34;96577.88;2065174;28;20428;-67
2022/08/12 13:11:51;;;;;;;5.50;1.23;;;;;;;30.22;23.30;96578.06;2064164;28;20456;-68
2022/08/12 13:12:54;;;;;;;2.77;1.10;;;;;;;30.95;22.92;96585.81;2065152;28;20515;-68
2022/08/12 13:13:56;;;;;;;2.17;1.30;;;;;;;31.33;22.64;96572.97;2065052;28;20428;-67
2022/08/12 13:15:16;;;;;;;12.23;1.40;;;;;;;32.92;21.90;96581.44;2064957;28;20424;-67
2022/08/12 13:16:39;;;;;;;4.07;1.20;;;;;;;33.35;20.54;96574.66;2064470;28;20546;-68
2022/08/12 13:17:49;;;;;;;9.07;1.80;;;;;;;34.26;20.51;96583.50;2065189;28;21058;-67
2022/08/12 13:19:05;;;;;;;10.60;1.70;;;;;;;33.53;20.71;96582.91;2063765;28;20436;-68
2022/08/12 13:41:32;;;;;;;4.53;1.30;;;;;;;31.35;22.72;96555.53;2079254;28;20581;-67
2022/08/12 13:42:33;;;;;;;15.73;2.50;;;;;;;30.41;24.21;96581.94;2074920;28;20484;-68
2022/08/12 13:43:35;;;;;;;21.73;2.33;;;;;;;30.95;24.05;96583.13;2074026;28;20445;-67
2022/08/12 13:44:42;;;;;;;14.70;1.83;;;;;;;31.79;22.68;96574.16;2073417;28;20932;-68
2022/08/12 13:45:47;;;;;;;17.83;2.40;;;;;;;31.11;23.08;96573.09;2073822;28;20466;-69
2022/08/12 13:46:49;;;;;;;3.03;1.33;;;;;;;32.05;22.33;96582.28;2072740;28;20460;-68
2022/08/12 13:48:05;;;;;;;7.47;1.30;;;;;;;32.87;22.00;96583.94;2067641;28;20465;-67
2022/08/12 13:49:10;;;;;;;5.47;1.50;;;;;;;33.14;21.63;96575.75;2071240;28;20432;-67
2022/08/12 13:50:18;;;;;;;6.87;1.20;;;;;;;34.42;21.09;96582.13;2075702;28;20438;-67
2022/08/12 13:51:27;;;;;;;1.90;1.20;;;;;;;34.44;20.79;96581.91;2076399;28;20497;-67
2022/08/12 13:52:42;;;;;;;4.13;1.57;;;;;;;34.46;20.75;96566.25;2072584;28;20435;-67
2022/08/12 13:53:46;;;;;;;2.60;1.10;;;;;;;35.25;20.38;96574.63;2067056;28;20441;-67
2022/08/12 13:55:01;;;;;;;6.83;1.17;;;;;;;35.64;20.00;96574.34;2073414;28;20488;-67
2022/08/12 13:56:10;;;;;;;5.30;1.40;;;;;;;35.94;19.66;96573.53;2067629;28;20494;-67
2022/08/12 13:57:14;;;;;;;2.37;1.47;;;;;;;36.00;19.60;96569.91;2073481;28;20778;-68
2022/08/12 13:58:20;;;;;;;7.90;1.43;;;;;;;34.53;20.00;96569.72;2074295;28;20437;-68
2022/08/12 13:59:21;;;;;;;10.33;1.63;;;;;;;33.55;20.99;96569.16;2075186;28;20430;-68
2022/08/12 14:00:26;;;;;;;5.83;1.63;;;;;;;31.53;22.78;96573.84;2079394;28;21042;-68
2022/08/12 14:01:40;;;;;;;5.83;1.60;;;;;;;31.14;23.62;96564.59;2082272;28;20980;-69
2022/08/12 14:02:41;;;;;;;3.17;1.30;;;;;;;29.39;24.93;96542.66;2073149;28;20501;-69
2022/08/12 14:03:43;;;;;;;7.17;1.57;;;;;;;29.52;24.85;96558.09;2072854;28;20430;-67
2022/08/12 14:04:52;;;;;;;5.20;1.97;;;;;;;30.36;24.63;96554.75;2072257;28;20463;-67
2022/08/12 14:05:58;;;;;;;8.70;2.33;;;;;;;30.73;24.34;96560.81;2071484;28;20427;-67
2022/08/12 14:07:04;;;;;;;7.07;1.87;;;;;;;30.84;24.57;96555.91;2076035;28;20433;-69
2022/08/12 14:08:08;;;;;;;5.00;1.37;;;;;;;31.75;23.31;96573.72;2074017;28;20518;-68
2022/08/12 14:09:10;;;;;;;7.73;1.60;;;;;;;32.26;22.99;96564.25;2074420;28;20523;-68
2022/08/12 14:10:42;;;;;;;2.17;1.30;;;;;;;32.58;22.53;96564.41;2074037;28;20509;-68
2022/08/12 14:11:51;;;;;;;2.60;1.27;;;;;;;32.26;22.97;96564.25;2074373;28;20497;-68
2022/08/12 14:13:00;;;;;;;2.63;1.13;;;;;;;32.38;24.26;96569.88;2075259;28;20964;-68
2022/08/12 14:14:01;;;;;;;4.63;1.93;;;;;;;32.11;25.82;96572.50;2074899;28;20426;-71
2022/08/12 14:15:14;;;;;;;6.20;1.23;;;;;;;32.31;25.96;96566.31;2073915;28;20435;-73
2022/08/12 14:16:17;;;;;;;5.83;1.37;;;;;;;32.73;29.30;96569.59;2074359;28;20458;-72
2022/08/12 14:17:38;;;;;;;3.90;1.20;;;;;;;33.38;24.10;96560.69;2072457;28;20531;-73
2022/08/12 14:18:41;;;;;;;3.17;1.13;;;;;;;33.77;24.71;96557.97;2075608;28;20526;-73
2022/08/12 14:21:20;;;;;;;6.00;1.23;;;;;;;34.42;22.43;96557.72;2068665;28;20450;-73
2022/08/12 14:22:22;;;;;;;4.03;1.30;;;;;;;34.76;23.11;96560.94;2070604;28;20473;-73
2022/08/12 14:23:28;;;;;;;5.70;1.20;;;;;;;33.57;25.87;96558.91;2076072;28;21006;-73
2022/08/12 14:24:51;;;;;;;4.80;1.10;;;;;;;34.21;22.78;96553.53;2070171;28;20435;-73
2022/08/12 14:25:58;;;;;;;4.10;1.27;;;;;;;33.83;22.98;96551.72;2070389;28;20434;-73
2022/08/12 14:27:00;;;;;;;5.10;4.10;;;;;;;34.21;22.58;96549.97;2071479;28;20466;-73
2022/08/12 14:28:15;;;;;;;15.60;11.00;;;;;;;34.33;21.32;96550.91;2072341;28;20438;-72
2022/08/12 14:29:17;;;;;;;10.97;5.00;;;;;;;33.75;22.34;96550.09;2073806;28;20440;-72
2022/08/12 14:30:50;;;;;;;1.83;1.30;;;;;;;32.60;22.05;96543.44;2074711;28;20431;-71
2022/08/12 14:32:01;;;;;;;4.13;1.27;;;;;;;32.95;22.20;96545.88;2066865;28;20497;-71
2022/08/12 14:33:04;;;;;;;6.30;1.20;;;;;;;33.14;22.22;96540.59;2068579;28;20927;-70
2022/08/12 14:34:11;;;;;;;2.30;1.27;;;;;;;33.13;23.43;96541.63;2063278;28;20428;-70
2022/08/12 14:35:13;;;;;;;2.43;1.27;;;;;;;32.39;22.47;96542.63;2064578;28;20424;-70
2022/08/12 14:36:24;;;;;;;4.70;1.60;;;;;;;30.08;24.80;96536.72;2063885;28;20467;-70
2022/08/12 14:37:26;;;;;;;9.67;1.93;;;;;;;29.65;25.29;96536.72;2057179;28;20844;-70
2022/08/12 14:38:48;;;;;;;5.40;1.40;;;;;;;30.71;25.35;96527.03;2061099;28;20446;-70
2022/08/12 14:39:50;;;;;;;7.97;1.60;;;;;;;32.35;23.69;96536.00;2066295;28;20436;-70
2022/08/12 14:40:57;;;;;;;21.10;1.40;;;;;;;33.02;23.23;96540.44;2066077;28;20518;-70
2022/08/12 14:41:58;;;;;;;6.83;1.40;;;;;;;33.35;22.03;96543.00;2065838;28;20838;-70
2022/08/12 14:43:01;;;;;;;3.17;1.10;;;;;;;32.97;21.95;96546.47;2065461;28;20423;-70
2022/08/12 14:44:06;;;;;;;5.90;1.30;;;;;;;31.08;22.64;96543.81;2072137;28;20493;-70
2022/08/12 14:45:28;;;;;;;7.10;1.40;;;;;;;31.76;23.27;96540.31;2071446;28;20427;-70
2022/08/12 14:46:56;;;;;;;2.07;1.30;;;;;;;31.79;23.01;96544.47;2066416;28;20558;-70
2022/08/12 14:47:59;;;;;;;1.80;1.03;;;;;;;31.79;23.12;96552.56;2071817;28;20430;-70
2022/08/12 14:49:02;;;;;;;5.90;1.10;;;;;;;31.37;23.52;96548.06;2068743;28;20452;-70
2022/08/12 14:50:23;;;;;;;1.80;0.90;;;;;;;31.55;22.97;96547.50;2064667;28;20431;-69
2022/08/12 14:51:45;;;;;;;1.53;0.90;;;;;;;32.40;22.82;96547.00;2065051;28;20459;-69
2022/08/12 14:53:09;;;;;;;2.67;1.10;;;;;;;32.26;21.98;96539.94;2057822;28;20480;-69
2022/08/12 14:54:31;;;;;;;1.70;1.20;;;;;;;32.48;22.24;96543.25;2059536;28;20896;-69
2022/08/12 14:55:53;;;;;;;5.70;1.10;;;;;;;33.99;21.27;96537.66;2058473;28;20444;-69
2022/08/12 14:57:15;;;;;;;5.03;1.90;;;;;;;34.92;20.30;96546.00;2058111;28;20457;-68
2022/08/12 14:58:25;;;;;;;3.10;1.10;;;;;;;33.90;20.47;96543.56;2058524;28;20444;-68
2022/08/12 15:02:21;;;;;;;5.60;1.37;;;;;;;35.13;20.01;96554.72;2062745;28;20510;-68
2022/08/12 15:03:26;;;;;;;4.93;1.33;;;;;;;34.61;20.09;96536.09;2060605;28;20481;-68
2022/08/12 15:04:57;;;;;;;31.93;1.60;;;;;;;34.54;20.57;96538.88;2059691;28;20927;-69
2022/08/12 15:06:06;;;;;;;2.67;1.30;;;;;;;33.30;20.89;96529.31;2059393;28;20424;-68
2022/08/12 15:33:07;;;;;;;3.10;1.30;;;;;;;27.67;27.24;96522.78;2084372;28;20561;-69
2022/08/12 15:34:19;;;;;;;6.93;1.40;;;;;;;27.87;27.32;96531.16;2077136;28;20196;-70
2022/08/12 15:35:28;;;;;;;2.03;1.00;;;;;;;28.08;26.52;96530.50;2085138;28;20204;-69
2022/08/12 15:36:38;;;;;;;6.13;1.50;;;;;;;28.32;26.04;96529.44;2079204;28;20576;-70
2022/08/12 15:37:56;;;;;;;2.80;1.30;;;;;;;28.67;26.04;96528.91;2072487;28;20540;-69
2022/08/12 15:39:11;;;;;;;5.20;1.20;;;;;;;28.88;25.80;96524.66;2073966;28;20285;-70
2022/08/12 15:40:18;;;;;;;3.08;1.20;;;;;;;29.07;25.68;96526.75;2072607;28;20805;-68
2022/08/12 15:41:31;;;;;;;6.03;1.17;;;;;;;29.13;25.49;96526.00;2072858;28;20679;-68
2022/08/12 15:42:51;;;;;;;12.45;1.33;;;;;;;29.29;25.69;96530.38;2070949;28;20577;-68
2022/08/12 15:49:02;;;;;;;2.63;1.17;;;;;;;31.56;23.48;96532.16;2076176;28;20742;-69
2022/08/12 15:50:22;;;;;;;2.70;1.30;;;;;;;31.92;23.60;96522.88;2073578;28;20209;-68
2022/08/12 15:51:34;;;;;;;1.47;0.97;;;;;;;32.17;23.09;96516.88;2073018;28;20467;-68
2022/08/12 15:52:57;;;;;;;5.20;1.40;;;;;;;32.46;22.83;96512.09;2075264;28;20462;-68
2022/08/12 15:54:14;;;;;;;5.03;1.20;;;;;;;32.47;22.46;96516.41;2074361;28;20422;-68
2022/08/12 15:55:36;;;;;;;4.40;1.33;;;;;;;32.54;22.45;96512.69;2073866;28;20434;-68
2022/08/12 15:56:47;;;;;;;4.23;1.00;;;;;;;32.31;22.90;96528.50;2075030;28;20977;-68
2022/08/12 15:57:56;;;;;;;2.60;1.00;;;;;;;31.03;23.27;96513.91;2076774;28;20821;-68
2022/08/12 15:58:58;;;;;;;5.33;1.13;;;;;;;31.22;23.54;96523.13;2072196;28;20431;-68
2022/08/12 15:59:59;;;;;;;2.57;1.13;;;;;;;32.07;22.74;96523.53;2073161;28;20423;-68
2022/08/12 16:41:01;;;;;;;3.65;1.10;;;;;;;31.72;23.05;96510.22;2100624;27;20577;-68
2022/08/12 16:42:04;;;;;;;3.47;1.20;;;;;;;31.88;23.28;96508.13;2087170;28;20219;-68
2022/08/12 16:43:23;;;;;;;2.95;1.08;;;;;;;32.17;22.93;96519.56;2086441;28;20200;-69